Terminal Aerodrome Forecast
Issued by NWS

Home | Current Version | Previous Version | Graphics & Text | Print | Product List | Glossary On
Versions: 1 2 3 4 5 6 7 8 9 10 11 12 13 14 15 16 17 18 19
000
FTUS43 KFGF 272337
TAFBJI
TAF
KBJI 272337Z 2800/2824 35007KT P6SM OVC015
     FM280400 35007KT P6SM BKN020
     FM281300 01005KT P6SM BKN035
     FM281800 02006KT P6SM SCT050
     FM282300 04005KT P6SM FEW200=

USA.gov is the U.S. government's official web portal to all federal, state and local government web resources and services.